Time;durP1;ratioP1;P1;durP2;ratioP2;P2;SDS_P1;SDS_P2;PMS_P1;PMS_P2;Temp;Humidity;BMP_temperature;BMP_pressure;BME280_temperature;BME280_humidity;BME280_pressure;Samples;Min_cycle;Max_cycle;Signal;HPM_P1;HPM_P2
2022/12/02 00:02:32;;;;;;;28.80;15.10;;;;;;;-141.97;100.00;47934.25;4998641;28;20159;-86
2022/12/02 00:05:24;;;;;;;27.87;14.80;;;;;;;-141.97;100.00;47916.97;4990583;28;20159;-87
2022/12/02 00:07:50;;;;;;;29.80;15.20;;;;;;;-141.97;100.00;47822.78;4899231;29;20187;-86
2022/12/02 00:10:31;;;;;;;30.73;15.27;;;;;;;-141.97;100.00;47980.41;4898931;29;20201;-86
2022/12/02 00:13:18;;;;;;;29.00;14.93;;;;;;;-141.97;100.00;47926.56;4899431;29;20187;-85
2022/12/02 00:15:46;;;;;;;29.87;14.53;;;;;;;-141.97;100.00;47922.72;4899330;29;20301;-86
2022/12/02 00:18:14;;;;;;;30.53;14.83;;;;;;;-141.97;100.00;47907.34;4899087;29;20203;-86
2022/12/02 00:20:41;;;;;;;27.30;14.30;;;;;;;-141.97;100.00;47872.75;4899455;29;20630;-86
2022/12/02 00:23:07;;;;;;;26.77;13.50;;;;;;;-141.97;100.00;47936.19;4898189;29;20250;-86
2022/12/02 00:25:32;;;;;;;25.20;13.10;;;;;;;-141.97;100.00;47888.13;4898456;29;20610;-86
2022/12/02 00:27:58;;;;;;;29.30;13.57;;;;;;;-141.97;100.00;48013.06;4898371;29;20166;-86
2022/12/02 00:30:24;;;;;;;29.83;13.67;;;;;;;-141.97;100.00;47915.03;4898542;29;20171;-85
2022/12/02 00:32:50;;;;;;;25.43;11.80;;;;;;;-141.97;100.00;47807.41;4898200;29;20210;-83
2022/12/02 00:35:15;;;;;;;29.33;12.80;;;;;;;-141.97;100.00;47868.91;4898648;29;20266;-85
2022/12/02 00:37:41;;;;;;;27.73;12.70;;;;;;;-141.97;100.00;47916.97;4898441;29;20229;-85
2022/12/02 00:40:07;;;;;;;22.60;10.83;;;;;;;-141.97;100.00;47888.13;4898112;29;20167;-86
2022/12/02 00:42:32;;;;;;;24.97;11.90;;;;;;;-141.97;100.00;47851.59;4882654;29;20178;-85
2022/12/02 00:47:42;;;;;;;27.53;13.67;;;;;;;-141.97;100.00;47855.44;4958148;29;20220;-86
2022/12/02 00:50:07;;;;;;;28.33;12.80;;;;;;;-141.97;100.00;47865.06;4957564;29;20188;-86
2022/12/02 00:52:33;;;;;;;29.27;13.23;;;;;;;-141.97;100.00;47930.41;4956813;29;20161;-85
2022/12/02 00:54:58;;;;;;;31.23;13.03;;;;;;;-141.97;100.00;47970.78;4940376;29;20193;-86
2022/12/02 00:57:24;;;;;;;30.07;13.30;;;;;;;-141.97;100.00;47838.16;4957203;29;20168;-86
2022/12/02 00:59:49;;;;;;;25.87;12.60;;;;;;;-141.97;100.00;47965.03;4964003;29;20173;-86
2022/12/02 01:02:14;;;;;;;37.80;15.43;;;;;;;-141.97;100.00;47811.25;4966808;29;20216;-86
2022/12/02 01:04:40;;;;;;;34.37;15.40;;;;;;;-141.97;100.00;47891.97;4950919;29;20168;-85
2022/12/02 01:07:05;;;;;;;33.37;16.03;;;;;;;-141.97;100.00;47924.66;4958501;29;20169;-84
2022/12/02 01:09:31;;;;;;;34.40;15.23;;;;;;;-141.97;100.00;47809.31;4956459;29;20629;-86
2022/12/02 01:11:56;;;;;;;33.57;15.50;;;;;;;-141.97;100.00;47953.50;4956296;29;20165;-83
2022/12/02 01:14:21;;;;;;;30.43;14.90;;;;;;;-141.97;100.00;47849.69;4967199;29;20173;-82
2022/12/02 01:16:47;;;;;;;34.20;15.63;;;;;;;-141.97;100.00;47966.94;4957496;29;20193;-86
2022/12/02 01:19:12;;;;;;;33.60;15.47;;;;;;;-141.97;100.00;47934.25;4956831;29;20543;-86
2022/12/02 01:21:38;;;;;;;40.97;17.43;;;;;;;-141.97;100.00;47945.81;4956582;29;20161;-85
2022/12/02 01:24:03;;;;;;;39.20;17.23;;;;;;;-141.97;100.00;47824.69;4938627;29;20196;-86
2022/12/02 01:26:29;;;;;;;35.33;16.90;;;;;;;-141.97;100.00;47930.41;4953925;28;20234;-84
2022/12/02 01:28:54;;;;;;;38.90;17.37;;;;;;;-141.97;100.00;47913.13;4976296;28;20183;-85
2022/12/02 01:31:20;;;;;;;37.03;17.73;;;;;;;-141.97;100.00;47922.72;4976093;28;20163;-84
2022/12/02 01:33:45;;;;;;;43.80;18.00;;;;;;;-141.97;100.00;47976.56;4975647;28;20629;-85
2022/12/02 01:36:11;;;;;;;35.27;16.20;;;;;;;-141.97;100.00;47915.03;4958502;28;20204;-86
2022/12/02 01:38:36;;;;;;;41.20;17.30;;;;;;;-141.97;100.00;47857.38;4974847;28;20174;-86
2022/12/02 01:41:03;;;;;;;37.97;17.73;;;;;;;-141.97;100.00;47924.66;4975938;28;20171;-86
2022/12/02 01:43:29;;;;;;;37.00;16.60;;;;;;;-141.97;100.00;47907.34;4975240;28;20191;-87
2022/12/02 01:45:55;;;;;;;36.07;16.47;;;;;;;-141.97;100.00;47953.50;4974936;28;20625;-86
2022/12/02 01:48:20;;;;;;;35.57;16.73;;;;;;;-141.97;100.00;47934.25;4958370;28;20176;-87
2022/12/02 01:50:46;;;;;;;35.33;16.40;;;;;;;-141.97;100.00;47857.38;4975247;28;20184;-86
2022/12/02 01:53:12;;;;;;;35.77;16.43;;;;;;;-141.97;100.00;47807.41;4975007;28;20160;-86
2022/12/02 01:55:37;;;;;;;38.57;16.53;;;;;;;-141.97;100.00;47907.34;4974248;28;20196;-84
2022/12/02 01:58:03;;;;;;;37.70;16.23;;;;;;;-141.97;100.00;47903.50;4957645;28;20176;-85
2022/12/02 02:00:29;;;;;;;34.67;16.50;;;;;;;-141.97;100.00;47930.41;4956362;28;20254;-86
2022/12/02 02:02:56;;;;;;;35.47;16.27;;;;;;;-141.97;100.00;47915.03;4956059;28;20171;-85
2022/12/02 02:05:30;;;;;;;37.93;15.90;;;;;;;-141.97;100.00;47907.34;4973169;28;20200;-85
2022/12/02 02:08:11;;;;;;;35.37;16.47;;;;;;;-141.97;100.00;47936.19;4973384;28;20168;-85
2022/12/02 02:10:39;;;;;;;36.93;16.23;;;;;;;-141.97;100.00;47945.81;4973204;28;20243;-87
2022/12/02 02:13:06;;;;;;;39.60;16.07;;;;;;;-141.97;100.00;47918.88;4972878;28;20191;-87
2022/12/02 02:15:32;;;;;;;36.57;15.93;;;;;;;-141.97;100.00;47774.72;4972938;28;20245;-87
2022/12/02 02:17:57;;;;;;;35.80;15.83;;;;;;;-141.97;100.00;47916.97;4973233;28;20243;-87
2022/12/02 02:20:25;;;;;;;35.43;16.30;;;;;;;-141.97;100.00;47895.81;4972876;28;20216;-87
2022/12/02 02:23:05;;;;;;;36.63;16.13;;;;;;;-141.97;100.00;47926.56;4979563;28;20236;-87
2022/12/02 02:25:33;;;;;;;34.63;14.77;;;;;;;-141.97;100.00;47926.56;4998375;28;20227;-87
2022/12/02 02:28:00;;;;;;;35.63;15.63;;;;;;;-141.97;100.00;47915.03;5014324;28;20202;-87
2022/12/02 02:30:31;;;;;;;33.60;15.10;;;;;;;-141.97;100.00;47930.41;5004650;28;20177;-87
2022/12/02 02:33:00;;;;;;;34.93;15.50;;;;;;;-141.97;100.00;47915.03;4991206;28;20585;-87
2022/12/02 02:35:25;;;;;;;35.30;15.50;;;;;;;-141.97;100.00;48034.22;4992126;28;20225;-87
2022/12/02 02:37:53;;;;;;;34.70;15.33;;;;;;;-141.97;100.00;47911.19;4990932;28;20220;-87
2022/12/02 02:40:20;;;;;;;34.83;15.80;;;;;;;-141.97;100.00;47930.41;4992136;28;20175;-87
2022/12/02 02:42:50;;;;;;;38.37;16.00;;;;;;;-141.97;100.00;47930.41;4991974;28;20160;-87
2022/12/02 02:45:18;;;;;;;41.47;16.70;;;;;;;-141.97;100.00;47938.09;4974594;28;20233;-88
2022/12/02 02:47:43;;;;;;;40.13;16.70;;;;;;;-141.97;100.00;47903.50;4992077;28;20202;-87
2022/12/02 02:50:09;;;;;;;39.37;15.87;;;;;;;-141.97;100.00;47909.28;4991825;28;20882;-87
2022/12/02 02:52:35;;;;;;;43.63;16.47;;;;;;;-141.97;100.00;47955.41;4992005;28;20674;-87
2022/12/02 02:55:00;;;;;;;40.97;15.53;;;;;;;-141.97;100.00;47882.38;4991004;28;20195;-87
2022/12/02 02:57:25;;;;;;;41.23;16.63;;;;;;;-141.97;100.00;47907.34;4992209;28;20191;-86
2022/12/02 02:59:54;;;;;;;38.63;15.50;;;;;;;-141.97;100.00;47953.50;4991992;28;20175;-87
2022/12/02 03:02:21;;;;;;;42.67;16.90;;;;;;;-141.97;100.00;47930.41;4991830;28;20250;-87
2022/12/02 03:04:47;;;;;;;39.53;15.57;;;;;;;-141.97;100.00;47840.06;4991932;28;20759;-86
2022/12/02 03:07:13;;;;;;;40.37;16.30;;;;;;;-141.97;100.00;47984.25;4995251;28;20511;-87
2022/12/02 03:09:39;;;;;;;41.47;16.63;;;;;;;-141.97;100.00;47922.72;4995616;28;20206;-87
2022/12/02 03:12:06;;;;;;;43.10;17.17;;;;;;;-141.97;100.00;47761.25;4994609;28;20171;-87
2022/12/02 03:14:31;;;;;;;45.27;17.23;;;;;;;-141.97;100.00;47972.72;4996077;28;20414;-87
2022/12/02 03:17:00;;;;;;;40.60;17.17;;;;;;;-141.97;100.00;47866.97;4995606;28;20191;-87
2022/12/02 03:19:26;;;;;;;40.57;16.93;;;;;;;-141.97;100.00;47970.78;4994377;28;21439;-87
2022/12/02 03:21:52;;;;;;;37.93;17.63;;;;;;;-141.97;100.00;47886.22;4995471;28;20167;-87
2022/12/02 03:24:17;;;;;;;45.33;18.73;;;;;;;-141.97;100.00;47999.63;4977966;28;20254;-86
2022/12/02 03:26:44;;;;;;;39.83;18.03;;;;;;;-141.97;100.00;47874.69;4994054;28;20619;-86
2022/12/02 03:29:11;;;;;;;43.50;18.67;;;;;;;-141.97;100.00;47957.34;4977981;28;20167;-87
2022/12/02 03:31:36;;;;;;;41.50;18.27;;;;;;;-141.97;100.00;47932.34;4996013;28;20548;-87
2022/12/02 03:34:02;;;;;;;46.03;18.03;;;;;;;-141.97;100.00;47930.41;4995678;28;20421;-87
2022/12/02 03:36:28;;;;;;;44.57;19.20;;;;;;;-141.97;100.00;47834.31;4995192;28;20199;-87
2022/12/02 03:38:53;;;;;;;41.10;19.07;;;;;;;-141.97;100.00;47795.88;4995110;28;20199;-87
2022/12/02 03:41:20;;;;;;;42.53;17.53;;;;;;;-141.97;100.00;47957.34;4995405;28;20598;-86
2022/12/02 03:43:45;;;;;;;41.60;18.83;;;;;;;-141.97;100.00;47974.63;4994084;28;20254;-87
2022/12/02 03:46:11;;;;;;;39.37;17.87;;;;;;;-141.97;100.00;47918.88;4995146;28;20270;-84
2022/12/02 03:48:38;;;;;;;43.77;19.40;;;;;;;-141.97;100.00;48032.31;5004272;28;20174;-86
2022/12/02 03:51:05;;;;;;;42.17;19.30;;;;;;;-141.97;100.00;47938.09;4995428;28;20402;-87
2022/12/02 03:53:30;;;;;;;43.37;20.10;;;;;;;-141.97;100.00;47836.22;4995174;28;20190;-87
2022/12/02 03:55:56;;;;;;;45.77;20.73;;;;;;;-141.97;100.00;47945.81;4994933;28;20203;-87
2022/12/02 03:58:37;;;;;;;40.10;18.87;;;;;;;-141.97;100.00;48022.69;4993624;28;20203;-87
2022/12/02 04:01:04;;;;;;;43.00;20.47;;;;;;;-141.97;100.00;47951.56;4995135;28;20606;-87
2022/12/02 04:03:29;;;;;;;41.87;20.13;;;;;;;-141.97;100.00;47930.41;4994883;28;20663;-87
2022/12/02 04:05:55;;;;;;;41.30;19.47;;;;;;;-141.97;100.00;47851.59;4994546;28;20188;-87
2022/12/02 04:08:20;;;;;;;42.70;19.47;;;;;;;-141.97;100.00;47772.78;4995296;28;20171;-87
2022/12/02 04:10:45;;;;;;;38.70;18.77;;;;;;;-141.97;100.00;47972.72;4996846;28;20164;-87
2022/12/02 04:13:11;;;;;;;44.97;18.93;;;;;;;-141.97;100.00;47880.44;4996379;28;20170;-87
2022/12/02 04:15:36;;;;;;;86.63;41.03;;;;;;;-141.97;100.00;48007.31;4979656;28;20202;-86
2022/12/02 04:18:02;;;;;;;62.77;28.07;;;;;;;-141.97;100.00;47866.97;4986041;28;20186;-86
2022/12/02 04:20:27;;;;;;;249.63;79.30;;;;;;;-141.97;100.00;47947.72;4997568;28;20167;-87
2022/12/02 04:22:53;;;;;;;202.70;68.73;;;;;;;-141.97;100.00;47934.25;4979326;28;20216;-87
2022/12/02 04:25:18;;;;;;;119.30;46.97;;;;;;;-141.97;100.00;47861.22;4998992;28;20223;-87
2022/12/02 04:27:44;;;;;;;56.97;25.37;;;;;;;-141.97;100.00;47988.09;4989353;28;20175;-88
2022/12/02 04:30:10;;;;;;;52.70;25.33;;;;;;;-141.97;100.00;47938.09;4987054;28;20171;-86
2022/12/02 04:32:35;;;;;;;47.37;21.07;;;;;;;-141.97;100.00;47941.94;5006289;28;20219;-87
2022/12/02 04:35:01;;;;;;;68.57;33.63;;;;;;;-141.97;100.00;48026.53;4986955;28;20198;-86
2022/12/02 04:37:26;;;;;;;45.17;21.93;;;;;;;-141.97;100.00;47915.03;4998199;28;20170;-86
2022/12/02 04:39:52;;;;;;;40.57;16.83;;;;;;;-141.97;100.00;47922.72;4982241;28;20210;-84
2022/12/02 04:42:17;;;;;;;39.30;17.60;;;;;;;-141.97;100.00;47970.78;5001972;28;20186;-84
2022/12/02 04:44:43;;;;;;;35.17;15.60;;;;;;;-141.97;100.00;47980.41;4984511;28;20564;-85
2022/12/02 04:47:08;;;;;;;34.57;15.67;;;;;;;-141.97;100.00;47911.19;5003794;28;20163;-86
2022/12/02 04:49:33;;;;;;;48.00;19.83;;;;;;;-141.97;100.00;47999.63;5008427;28;20167;-86
2022/12/02 04:51:59;;;;;;;41.57;17.30;;;;;;;-141.97;100.00;47880.44;5012605;28;20167;-85
2022/12/02 04:54:24;;;;;;;41.20;18.20;;;;;;;-141.97;100.00;47811.25;5012642;28;20168;-86
2022/12/02 04:56:49;;;;;;;43.37;19.37;;;;;;;-141.97;100.00;47922.72;4979118;28;20191;-87
2022/12/02 04:59:15;;;;;;;100.67;42.23;;;;;;;-141.97;100.00;47911.19;5004908;28;20231;-86
2022/12/02 05:01:40;;;;;;;59.13;25.60;;;;;;;-141.97;100.00;47726.66;4998150;28;20171;-86
2022/12/02 05:04:06;;;;;;;85.07;38.53;;;;;;;-141.97;100.00;47909.28;4984868;28;20182;-86
2022/12/02 05:06:31;;;;;;;52.03;22.13;;;;;;;-141.97;100.00;47957.34;4976626;28;20649;-87
2022/12/02 05:08:56;;;;;;;44.70;18.17;;;;;;;-141.97;100.00;47847.75;4994169;28;20640;-86
2022/12/02 05:11:22;;;;;;;40.07;16.73;;;;;;;-141.97;100.00;47845.84;4978442;28;20265;-87
2022/12/02 05:13:47;;;;;;;40.07;16.67;;;;;;;-141.97;100.00;48005.38;4980566;28;20175;-87
2022/12/02 05:16:12;;;;;;;47.13;16.67;;;;;;;-141.97;100.00;47961.19;4976660;28;20780;-87
2022/12/02 05:18:38;;;;;;;44.90;17.70;;;;;;;-141.97;100.00;47938.09;4988758;28;20164;-86
2022/12/02 05:21:03;;;;;;;46.57;17.87;;;;;;;-141.97;100.00;47849.69;4975964;28;20197;-87
2022/12/02 05:23:29;;;;;;;43.13;16.53;;;;;;;-141.97;100.00;47926.56;4995184;28;20569;-85
2022/12/02 05:25:54;;;;;;;50.87;19.70;;;;;;;-141.97;100.00;47784.34;4995082;28;20222;-86
2022/12/02 05:28:19;;;;;;;41.33;16.37;;;;;;;-141.97;100.00;47955.41;5004364;28;20175;-88
2022/12/02 05:30:45;;;;;;;43.93;16.27;;;;;;;-141.97;100.00;47872.75;4995022;28;20199;-86
2022/12/02 05:33:10;;;;;;;43.00;15.57;;;;;;;-141.97;100.00;47972.72;4967590;28;20191;-86
2022/12/02 05:35:35;;;;;;;35.93;14.93;;;;;;;-141.97;100.00;47874.69;4956071;28;20358;-86
2022/12/02 05:38:01;;;;;;;49.33;19.17;;;;;;;-141.97;100.00;47843.91;4974418;28;20168;-87
2022/12/02 05:40:26;;;;;;;38.47;15.20;;;;;;;-141.97;100.00;47828.53;4980363;28;21070;-86
2022/12/02 05:42:52;;;;;;;38.43;15.57;;;;;;;-141.97;100.00;47907.34;4987978;28;20184;-86
2022/12/02 05:45:19;;;;;;;42.57;17.17;;;;;;;-141.97;100.00;47949.66;4973222;28;20255;-86
2022/12/02 05:47:49;;;;;;;40.57;15.53;;;;;;;-141.97;100.00;47922.72;4973745;28;20615;-87
2022/12/02 05:50:15;;;;;;;48.43;16.77;;;;;;;-141.97;100.00;47911.19;4972357;28;20215;-87
2022/12/02 05:52:42;;;;;;;47.83;19.23;;;;;;;-141.97;100.00;47834.31;4974746;28;20659;-86
2022/12/02 05:55:19;;;;;;;46.67;19.53;;;;;;;-141.97;100.00;48016.94;4992533;28;20274;-86
2022/12/02 05:57:45;;;;;;;49.80;19.73;;;;;;;-141.97;100.00;47953.50;4991832;28;20174;-87
2022/12/02 06:00:22;;;;;;;52.53;21.20;;;;;;;-141.97;100.00;47895.81;4992853;28;20255;-86
2022/12/02 06:02:57;;;;;;;71.13;26.63;;;;;;;-141.97;100.00;47926.56;4987948;28;20180;-86
2022/12/02 06:05:26;;;;;;;60.50;25.00;;;;;;;-141.97;100.00;47932.34;4972768;28;20170;-86
2022/12/02 06:07:54;;;;;;;65.27;26.90;;;;;;;-141.97;100.00;47911.19;4973363;28;20190;-87
2022/12/02 06:10:29;;;;;;;89.50;38.80;;;;;;;-141.97;100.00;47911.19;4948303;28;20203;-87
2022/12/02 06:13:13;;;;;;;178.27;69.43;;;;;;;-141.97;100.00;47959.25;4977296;28;20167;-87
2022/12/02 06:15:39;;;;;;;168.93;71.70;;;;;;;-141.97;100.00;47930.41;4992694;28;20192;-87
2022/12/02 06:18:16;;;;;;;89.50;45.30;;;;;;;-141.97;100.00;47941.94;4982477;28;20178;-84
2022/12/02 06:20:43;;;;;;;158.00;73.33;;;;;;;-141.97;100.00;47934.25;4998613;28;20189;-86
2022/12/02 06:23:16;;;;;;;218.20;95.40;;;;;;;-141.97;100.00;48005.38;4995195;28;20198;-88
2022/12/02 06:25:43;;;;;;;232.03;105.07;;;;;;;-141.97;100.00;48030.38;4993808;28;20221;-86
2022/12/02 06:28:17;;;;;;;158.77;71.47;;;;;;;-141.97;100.00;47861.22;4975506;28;20183;-85
2022/12/02 06:30:42;;;;;;;67.57;29.90;;;;;;;-141.97;100.00;47941.94;4976009;28;20190;-85
2022/12/02 06:33:19;;;;;;;290.27;126.60;;;;;;;-141.97;100.00;47928.50;4993038;28;20171;-85
2022/12/02 06:35:45;;;;;;;106.93;45.40;;;;;;;-141.97;100.00;47926.56;4992422;28;20194;-86
2022/12/02 06:38:24;;;;;;;123.57;59.30;;;;;;;-141.97;100.00;47988.09;4992112;28;20160;-88
2022/12/02 06:40:49;;;;;;;182.53;97.17;;;;;;;-141.97;100.00;47926.56;4992120;28;20175;-88
2022/12/02 06:43:23;;;;;;;172.07;90.60;;;;;;;-141.97;100.00;47943.88;4992128;28;20626;-87
2022/12/02 06:45:49;;;;;;;268.90;126.70;;;;;;;-141.97;100.00;48036.16;4992557;28;20593;-87
2022/12/02 06:48:26;;;;;;;481.93;242.27;;;;;;;-141.97;100.00;47899.66;4984348;28;20184;-89
2022/12/02 06:50:54;;;;;;;142.43;60.97;;;;;;;-141.97;100.00;47876.59;4990390;28;20179;-88
2022/12/02 06:53:25;;;;;;;56.93;24.70;;;;;;;-141.97;100.00;47905.44;4992115;28;20175;-89
2022/12/02 06:55:57;;;;;;;56.63;26.27;;;;;;;-141.97;100.00;47924.66;4976177;28;20195;-89
2022/12/02 06:58:29;;;;;;;52.70;23.80;;;;;;;-141.97;100.00;47826.63;4991591;28;20186;-90
2022/12/02 07:01:10;;;;;;;65.67;27.27;;;;;;;-141.97;100.00;47888.13;4995509;28;20175;-88
2022/12/02 07:03:48;;;;;;;120.40;49.70;;;;;;;-141.97;100.00;47897.75;4987641;28;20554;-89
2022/12/02 07:06:19;;;;;;;126.17;55.50;;;;;;;-141.97;100.00;47961.19;4988472;28;20175;-89
2022/12/02 07:08:45;;;;;;;80.57;36.97;;;;;;;-141.97;100.00;47838.16;4989396;28;20168;-89
2022/12/02 07:14:21;;;;;;;77.53;42.87;;;;;;;-141.97;100.00;47899.66;4981387;28;20183;-88
2022/12/02 07:16:48;;;;;;;165.57;84.73;;;;;;;-141.97;100.00;47865.06;5002987;28;20191;-89
2022/12/02 07:19:31;;;;;;;128.53;61.30;;;;;;;-141.97;100.00;47897.75;4997352;28;20244;-88
2022/12/02 07:21:57;;;;;;;144.80;70.90;;;;;;;-141.97;100.00;47886.22;4974617;28;20186;-87
2022/12/02 07:24:24;;;;;;;165.33;81.87;;;;;;;-141.97;100.00;48040.00;4991829;28;20187;-87
2022/12/02 07:26:49;;;;;;;209.37;104.30;;;;;;;-141.97;100.00;47853.53;4974342;28;20326;-89
2022/12/02 07:29:25;;;;;;;290.77;136.17;;;;;;;-141.97;100.00;47895.81;4991847;28;20226;-87
2022/12/02 07:31:53;;;;;;;110.10;54.23;;;;;;;-141.97;100.00;47843.91;4970860;28;20179;-90
2022/12/02 07:34:18;;;;;;;72.10;34.50;;;;;;;-141.97;100.00;47878.53;4971279;28;20176;-89
2022/12/02 07:36:44;;;;;;;56.57;27.07;;;;;;;-141.97;100.00;47836.22;4972745;28;20683;-88
2022/12/02 07:39:09;;;;;;;89.37;45.30;;;;;;;-141.97;100.00;47880.44;4987018;28;20679;-88
2022/12/02 07:41:34;;;;;;;118.97;52.90;;;;;;;-141.97;100.00;47840.06;4985622;28;20243;-87
2022/12/02 07:44:00;;;;;;;103.23;51.63;;;;;;;-141.97;100.00;47872.75;4990222;28;20241;-88
2022/12/02 07:46:25;;;;;;;53.60;26.10;;;;;;;-141.97;100.00;47888.13;4990542;28;20628;-90
2022/12/02 07:48:51;;;;;;;60.83;31.33;;;;;;;-141.97;100.00;47920.81;5005219;28;20175;-91
2022/12/02 07:51:16;;;;;;;47.70;22.87;;;;;;;-141.97;100.00;47851.59;4987093;28;20168;-90
2022/12/02 07:53:41;;;;;;;37.97;16.13;;;;;;;-141.97;100.00;47934.25;4973927;28;20262;-90
2022/12/02 07:56:07;;;;;;;67.50;40.90;;;;;;;-141.97;100.00;47815.09;4990538;28;20262;-90
2022/12/02 07:58:32;;;;;;;36.60;18.10;;;;;;;-141.97;100.00;47859.28;4976001;28;20195;-90
2022/12/02 08:00:58;;;;;;;33.60;14.87;;;;;;;-141.97;100.00;47976.56;4993783;28;20747;-91
2022/12/02 08:03:23;;;;;;;69.50;43.20;;;;;;;-141.97;100.00;47865.06;4994035;28;20179;-90
2022/12/02 08:05:48;;;;;;;35.43;18.47;;;;;;;-141.97;100.00;47863.13;4994942;28;20258;-92
2022/12/02 08:08:14;;;;;;;58.93;32.47;;;;;;;-141.97;100.00;47930.41;4993869;28;20648;-90
2022/12/02 08:10:39;;;;;;;62.53;36.43;;;;;;;-141.97;100.00;47909.28;4994126;28;20266;-90
2022/12/02 08:13:05;;;;;;;47.23;28.70;;;;;;;-141.97;100.00;47963.09;4994429;28;20171;-91
2022/12/02 08:15:30;;;;;;;34.13;19.13;;;;;;;-141.97;100.00;47991.94;4989808;28;20210;-90
2022/12/02 08:17:55;;;;;;;31.43;17.60;;;;;;;-141.97;100.00;47803.56;4993448;28;20178;-90
2022/12/02 08:20:21;;;;;;;19.83;9.53;;;;;;;-141.97;100.00;47966.94;4994966;28;20669;-90
2022/12/02 08:22:46;;;;;;;78.03;46.93;;;;;;;-141.97;100.00;47976.56;4977339;28;20206;-90
2022/12/02 08:25:12;;;;;;;168.90;103.07;;;;;;;-141.97;100.00;47818.94;4993477;28;20312;-90
2022/12/02 08:27:39;;;;;;;61.20;36.90;;;;;;;-141.97;100.00;47984.25;4994302;28;20163;-90
2022/12/02 08:30:08;;;;;;;32.37;17.37;;;;;;;-141.97;99.63;47897.75;4993651;28;20175;-90
2022/12/02 08:32:34;;;;;;;21.60;10.50;;;;;;;-141.97;98.74;47945.81;4977702;28;20170;-91
2022/12/02 08:34:59;;;;;;;23.50;11.87;;;;;;;-141.97;97.82;48011.16;4973968;28;20559;-90
2022/12/02 08:37:24;;;;;;;23.70;13.10;;;;;;;-141.97;97.26;47922.72;4975225;28;20168;-90
2022/12/02 08:39:50;;;;;;;25.23;13.77;;;;;;;-141.97;96.75;47826.63;4980790;28;20178;-89
2022/12/02 08:42:15;;;;;;;27.10;14.03;;;;;;;-141.97;94.72;47932.34;4992046;28;20258;-90
2022/12/02 08:44:41;;;;;;;20.17;10.20;;;;;;;-141.97;94.52;47957.34;4993617;28;20179;-91
2022/12/02 08:47:06;;;;;;;25.30;13.43;;;;;;;-141.97;96.95;47982.31;5006095;28;20164;-88
2022/12/02 08:49:31;;;;;;;17.13;8.50;;;;;;;-141.97;99.11;47811.25;5015132;28;20163;-89
2022/12/02 08:51:57;;;;;;;38.33;20.83;;;;;;;-141.97;98.57;47857.38;4993566;28;20191;-90
2022/12/02 08:54:22;;;;;;;35.93;19.23;;;;;;;-141.97;98.96;47857.38;4995518;28;20187;-90
2022/12/02 08:56:48;;;;;;;23.07;11.23;;;;;;;-141.97;99.10;47922.72;4967420;28;20238;-90
2022/12/02 08:59:16;;;;;;;30.13;17.57;;;;;;;-141.97;99.93;47803.56;4993458;28;20830;-91
2022/12/02 09:01:42;;;;;;;31.93;13.43;;;;;;;-141.97;96.54;47866.97;4995137;28;20250;-90
2022/12/02 09:04:07;;;;;;;20.97;11.10;;;;;;;-141.97;95.47;47851.59;4977815;28;20286;-91
2022/12/02 09:06:33;;;;;;;20.73;13.10;;;;;;;-141.97;94.50;47907.34;4995960;28;20205;-89
2022/12/02 09:08:59;;;;;;;19.03;10.83;;;;;;;-141.97;94.98;47955.41;5000729;28;20258;-90
2022/12/02 09:11:24;;;;;;;17.80;9.03;;;;;;;-141.97;93.61;47828.53;4997145;28;20203;-91
2022/12/02 09:13:50;;;;;;;26.93;14.03;;;;;;;-141.97;92.50;48009.22;4993625;28;20171;-91
2022/12/02 09:16:15;;;;;;;25.30;13.33;;;;;;;-141.97;90.74;47730.50;4993197;28;20198;-90
2022/12/02 09:18:40;;;;;;;19.00;10.73;;;;;;;-141.97;88.20;47853.53;4993163;28;20174;-90
2022/12/02 09:21:06;;;;;;;15.67;7.30;;;;;;;-141.97;88.13;47974.63;4989176;28;20306;-90
2022/12/02 09:23:31;;;;;;;19.50;10.47;;;;;;;-141.97;91.69;47865.06;4975289;28;20186;-90
2022/12/02 09:25:56;;;;;;;18.17;8.70;;;;;;;-141.97;90.54;47782.41;4992524;28;20223;-90
2022/12/02 09:28:22;;;;;;;14.33;7.40;;;;;;;-141.97;90.14;47955.41;4976589;28;20214;-89
2022/12/02 09:30:49;;;;;;;15.30;7.90;;;;;;;-141.97;89.21;47730.50;4979358;28;20683;-88
2022/12/02 09:33:14;;;;;;;28.43;16.67;;;;;;;-141.97;87.70;47886.22;4993730;28;20655;-90
2022/12/02 09:35:40;;;;;;;24.60;14.77;;;;;;;-141.97;87.50;47943.88;4972381;28;20208;-90
2022/12/02 09:38:05;;;;;;;19.17;11.17;;;;;;;-141.97;86.00;47784.34;4971018;28;20698;-89
2022/12/02 09:40:32;;;;;;;16.30;9.13;;;;;;;-141.97;84.94;47880.44;4975592;28;20245;-89
2022/12/02 09:42:58;;;;;;;11.00;6.30;;;;;;;-141.97;83.30;47792.03;4996989;28;20173;-91
2022/12/02 09:45:27;;;;;;;23.70;12.17;;;;;;;-141.97;82.19;47874.69;5002808;28;20167;-91
2022/12/02 09:47:54;;;;;;;15.87;8.57;;;;;;;-141.97;82.40;47809.31;4993804;28;20660;-91
2022/12/02 09:50:20;;;;;;;34.83;17.33;;;;;;;-141.97;86.25;48018.84;4994288;28;20184;-90
2022/12/02 09:52:46;;;;;;;23.47;13.80;;;;;;;-141.97;87.56;47963.09;4992024;28;20168;-91
2022/12/02 09:55:19;;;;;;;14.27;7.70;;;;;;;-141.97;87.71;47897.75;4993159;28;20269;-89
2022/12/02 09:57:45;;;;;;;14.77;8.57;;;;;;;-141.97;90.22;47899.66;4974805;28;20179;-90
2022/12/02 10:00:18;;;;;;;15.60;7.33;;;;;;;-141.97;89.50;47853.53;4980417;28;20243;-89
2022/12/02 10:02:49;;;;;;;10.47;5.30;;;;;;;-141.97;89.05;47840.06;4974779;28;20203;-88
2022/12/02 10:05:26;;;;;;;13.57;7.97;;;;;;;-141.97;90.16;47913.13;4992657;28;20167;-88
2022/12/02 10:07:54;;;;;;;15.73;9.37;;;;;;;-141.97;86.62;47915.03;4995592;28;20167;-88
2022/12/02 10:10:23;;;;;;;13.70;6.90;;;;;;;-141.97;85.94;47888.13;4996205;28;20262;-89
2022/12/02 10:12:49;;;;;;;12.27;6.07;;;;;;;-141.97;85.04;47799.72;4975160;28;20250;-89
2022/12/02 10:15:33;;;;;;;10.00;5.97;;;;;;;-141.97;85.31;47828.53;4975240;28;20211;-89
2022/12/02 10:18:18;;;;;;;9.43;5.17;;;;;;;-141.97;84.81;47865.06;4987403;28;20199;-90
2022/12/02 10:20:44;;;;;;;7.83;4.07;;;;;;;-141.97;83.70;47847.75;4974757;28;20175;-89
2022/12/02 10:23:17;;;;;;;8.97;4.63;;;;;;;-141.97;83.77;47880.44;4991849;28;20307;-90
2022/12/02 10:25:45;;;;;;;7.87;4.77;;;;;;;-141.97;83.36;47872.75;4992038;28;20234;-89
2022/12/02 10:28:30;;;;;;;25.77;11.83;;;;;;;-141.97;85.79;47866.97;4990976;28;20237;-89
2022/12/02 10:31:03;;;;;;;61.00;23.83;;;;;;;-141.97;87.51;47757.41;4989676;28;20281;-90
2022/12/02 10:33:32;;;;;;;13.80;7.07;;;;;;;-141.97;85.59;47930.41;4992068;28;20616;-90
2022/12/02 10:35:59;;;;;;;18.17;9.30;;;;;;;-141.97;84.56;47888.13;4997741;28;20267;-87
2022/12/02 10:38:39;;;;;;;11.57;6.37;;;;;;;-141.97;83.66;47941.94;4976105;28;20551;-89
2022/12/02 10:41:14;;;;;;;7.70;4.47;;;;;;;-141.97;83.99;47899.66;4974092;28;20644;-89
2022/12/02 10:43:41;;;;;;;15.33;8.77;;;;;;;-141.97;83.76;47840.06;4974718;28;20199;-89
2022/12/02 10:46:10;;;;;;;8.57;5.03;;;;;;;-141.97;82.77;47811.25;4991261;28;20198;-91
2022/12/02 10:48:35;;;;;;;10.37;5.73;;;;;;;-141.97;84.01;47853.53;4988780;28;20168;-88
2022/12/02 10:51:00;;;;;;;16.13;9.00;;;;;;;-141.97;85.29;47859.28;4973433;28;20183;-89
2022/12/02 10:53:28;;;;;;;12.57;7.00;;;;;;;-141.97;86.20;47880.44;4990370;28;20171;-89
2022/12/02 10:55:55;;;;;;;18.43;10.40;;;;;;;-141.97;85.57;47920.81;4973847;28;20664;-89
2022/12/02 10:58:29;;;;;;;22.07;12.67;;;;;;;-141.97;85.76;47926.56;4990119;28;20199;-90
2022/12/02 11:00:56;;;;;;;11.07;6.70;;;;;;;-141.97;84.09;47870.81;4991062;28;20258;-89
2022/12/02 11:03:22;;;;;;;12.63;6.93;;;;;;;-141.97;84.29;47822.78;4975227;28;20232;-91
2022/12/02 11:05:48;;;;;;;10.23;5.33;;;;;;;-141.97;85.17;47805.47;4991878;28;20217;-87